Time;durP1;ratioP1;P1;durP2;ratioP2;P2;SDS_P1;SDS_P2;PMS_P1;PMS_P2;Temp;Humidity;BMP_temperature;BMP_pressure;BME280_temperature;BME280_humidity;BME280_pressure;Samples;Min_cycle;Max_cycle;Signal;HPM_P1;HPM_P2
2021/12/10 00:00:26;;;;;;;62.72;37.15;;;;;;;4.07;100.00;99765.06;4813569;29;21810;-71
2021/12/10 00:02:52;;;;;;;68.85;38.05;;;;;;;4.14;100.00;99774.91;4808871;29;20162;-71
2021/12/10 00:05:31;;;;;;;69.07;37.28;;;;;;;4.14;100.00;99772.25;4798722;29;20074;-71
2021/12/10 00:07:58;;;;;;;64.28;38.55;;;;;;;4.15;100.00;99766.72;4805156;29;20183;-71
2021/12/10 00:10:30;;;;;;;69.35;39.00;;;;;;;4.18;100.00;99763.66;4818193;29;20130;-71
2021/12/10 00:12:56;;;;;;;67.88;39.67;;;;;;;4.18;100.00;99757.53;4813143;28;24296;-72
2021/12/10 00:15:24;;;;;;;65.18;38.45;;;;;;;4.18;100.00;99750.34;4807457;29;23816;-72
2021/12/10 00:17:51;;;;;;;64.93;37.92;;;;;;;4.22;100.00;99740.09;4815730;29;20039;-72
2021/12/10 00:20:17;;;;;;;58.35;36.53;;;;;;;4.20;100.00;99739.47;4785889;29;20047;-72
2021/12/10 00:22:55;;;;;;;64.50;37.83;;;;;;;4.14;100.00;99734.94;4814315;29;20027;-72
2021/12/10 00:25:26;;;;;;;61.35;38.47;;;;;;;4.13;100.00;99725.28;4832969;28;20051;-72
2021/12/10 00:27:53;;;;;;;59.92;37.72;;;;;;;4.09;100.00;99722.19;4823330;29;20058;-72
2021/12/10 00:30:33;;;;;;;56.95;36.50;;;;;;;4.07;100.00;99714.41;4831468;28;20046;-72
2021/12/10 00:33:15;;;;;;;59.25;37.83;;;;;;;4.13;100.00;99722.63;4785357;29;20051;-73
2021/12/10 00:35:41;;;;;;;66.60;37.15;;;;;;;4.09;100.00;99724.88;4833713;29;20066;-72
2021/12/10 00:38:08;;;;;;;73.03;37.25;;;;;;;4.04;100.00;99722.81;4816163;29;24067;-73
2021/12/10 00:40:35;;;;;;;69.05;34.65;;;;;;;4.04;100.00;99717.47;4805057;29;20483;-73
2021/12/10 00:43:01;;;;;;;70.65;38.90;;;;;;;4.10;100.00;99718.50;4801090;29;20125;-72
2021/12/10 00:45:27;;;;;;;66.75;34.38;;;;;;;4.00;100.00;99702.91;4811077;29;21614;-72
2021/12/10 00:47:53;;;;;;;65.75;36.15;;;;;;;3.99;100.00;99700.41;4809568;29;20619;-73
2021/12/10 00:50:23;;;;;;;51.55;34.53;;;;;;;4.09;100.00;99702.72;4818315;29;20043;-72
2021/12/10 00:52:49;;;;;;;63.97;35.47;;;;;;;4.09;100.00;99706.22;4803547;29;20138;-72
2021/12/10 00:55:16;;;;;;;60.13;34.75;;;;;;;4.12;100.00;99705.00;4817950;29;20067;-72
2021/12/10 00:57:42;;;;;;;60.58;35.92;;;;;;;4.14;100.00;99701.13;4816259;29;20047;-72
2021/12/10 01:00:14;;;;;;;66.55;36.40;;;;;;;4.18;100.00;99694.38;4805651;29;20043;-73
2021/12/10 01:02:40;;;;;;;61.83;34.35;;;;;;;4.16;100.00;99690.25;4821577;29;20028;-72
2021/12/10 01:05:06;;;;;;;56.75;34.20;;;;;;;4.15;100.00;99699.28;4819110;28;20051;-73
2021/12/10 01:07:34;;;;;;;61.03;34.25;;;;;;;4.10;100.00;99686.53;4829163;29;20059;-73
2021/12/10 01:10:02;;;;;;;62.95;35.75;;;;;;;4.19;100.00;99696.00;4805657;28;20038;-73
2021/12/10 01:12:41;;;;;;;62.70;36.00;;;;;;;4.18;100.00;99686.38;4805190;28;20047;-73
2021/12/10 01:28:58;;;;;;;55.95;34.47;;;;;;;4.09;100.00;99681.41;4800446;29;20119;-72
2021/12/10 01:31:24;;;;;;;72.45;35.40;;;;;;;4.07;100.00;99665.59;4820216;28;20126;-72
2021/12/10 01:33:52;;;;;;;62.85;36.75;;;;;;;4.10;100.00;99667.06;4817311;29;20122;-72
2021/12/10 01:36:18;;;;;;;65.45;36.70;;;;;;;4.09;100.00;99662.75;4814372;29;20031;-73
2021/12/10 01:38:45;;;;;;;57.45;35.75;;;;;;;4.07;100.00;99661.13;4799815;28;23618;-73
2021/12/10 01:41:15;;;;;;;61.63;36.92;;;;;;;4.07;100.00;99660.28;4830850;28;20690;-72
2021/12/10 01:43:43;;;;;;;63.22;36.03;;;;;;;4.03;100.00;99657.19;4811857;29;20784;-72
2021/12/10 01:46:12;;;;;;;62.97;37.58;;;;;;;4.09;100.00;99657.41;4825411;28;20047;-72
2021/12/10 01:48:44;;;;;;;57.05;34.92;;;;;;;4.14;100.00;99644.31;4833667;29;20126;-72
2021/12/10 01:51:12;;;;;;;57.50;34.00;;;;;;;4.05;100.00;99646.34;4818390;28;23977;-72
2021/12/10 01:53:39;;;;;;;59.53;33.78;;;;;;;4.11;100.00;99639.38;4801735;29;20173;-73
2021/12/10 01:56:11;;;;;;;58.05;32.70;;;;;;;4.09;100.00;99644.09;4813973;29;20027;-73
2021/12/10 01:58:37;;;;;;;55.63;33.28;;;;;;;4.09;100.00;99636.91;4810030;29;21225;-73
2021/12/10 02:01:07;;;;;;;60.38;34.30;;;;;;;4.05;100.00;99641.00;4804028;29;20125;-72
2021/12/10 02:03:33;;;;;;;59.00;32.08;;;;;;;4.01;100.00;99637.94;4821992;28;20716;-73
2021/12/10 02:05:59;;;;;;;48.63;29.85;;;;;;;4.02;100.00;99628.91;4836185;28;20038;-72
2021/12/10 02:08:25;;;;;;;50.63;31.30;;;;;;;3.97;100.00;99622.53;4820429;29;21042;-72
2021/12/10 02:10:50;;;;;;;50.58;30.88;;;;;;;3.91;100.00;99626.81;4821606;28;20105;-73
2021/12/10 02:13:16;;;;;;;56.47;32.22;;;;;;;3.92;100.00;99624.97;4834922;28;20043;-73
2021/12/10 02:15:43;;;;;;;53.15;29.88;;;;;;;3.93;100.00;99626.59;4798451;29;24687;-73
2021/12/10 02:18:12;;;;;;;62.30;33.08;;;;;;;3.92;100.00;99622.31;4828194;28;20057;-72
2021/12/10 02:21:12;;;;;;;53.05;31.60;;;;;;;3.89;100.00;99612.03;4838226;29;20044;-72
2021/12/10 02:23:44;;;;;;;54.20;31.98;;;;;;;3.88;100.00;99619.22;4804173;29;20470;-72
2021/12/10 02:26:12;;;;;;;57.25;33.83;;;;;;;3.87;100.00;99611.44;4834518;28;20035;-72
2021/12/10 02:28:38;;;;;;;59.35;33.17;;;;;;;3.85;100.00;99614.28;4832769;28;20104;-73
2021/12/10 02:31:04;;;;;;;55.28;31.65;;;;;;;3.93;100.00;99600.81;4809691;29;20117;-72
2021/12/10 02:33:30;;;;;;;56.47;31.98;;;;;;;3.92;100.00;99607.13;4802266;29;20054;-72
2021/12/10 02:35:56;;;;;;;53.45;31.60;;;;;;;3.87;100.00;99598.13;4803333;29;20051;-72
2021/12/10 02:38:22;;;;;;;55.53;30.40;;;;;;;4.01;100.00;99602.47;4829550;29;20047;-72
2021/12/10 02:40:49;;;;;;;55.97;30.25;;;;;;;3.93;100.00;99592.81;4817960;29;20166;-72
2021/12/10 02:43:17;;;;;;;55.38;31.45;;;;;;;3.91;100.00;99594.84;4787976;29;20141;-72
2021/12/10 02:45:44;;;;;;;48.67;29.15;;;;;;;3.96;100.00;99583.56;4814263;29;23927;-72
2021/12/10 02:48:10;;;;;;;46.78;27.73;;;;;;;3.93;100.00;99576.84;4813832;29;24261;-72
2021/12/10 02:50:37;;;;;;;49.90;29.02;;;;;;;3.96;100.00;99579.06;4792556;29;20062;-73
2021/12/10 02:53:05;;;;;;;48.38;27.58;;;;;;;3.95;100.00;99564.09;4801983;29;20062;-73
2021/12/10 02:55:31;;;;;;;51.22;27.17;;;;;;;4.01;100.00;99575.81;4806786;29;20632;-72
2021/12/10 02:57:59;;;;;;;42.00;26.10;;;;;;;3.98;100.00;99563.72;4800929;29;20567;-72
2021/12/10 03:00:29;;;;;;;47.13;26.73;;;;;;;3.96;100.00;99568.41;4798677;29;20151;-74
2021/12/10 03:02:55;;;;;;;52.80;25.42;;;;;;;3.93;100.00;99582.16;4809041;29;20044;-73
2021/12/10 03:05:21;;;;;;;43.90;24.63;;;;;;;3.91;100.00;99573.53;4798753;29;20035;-73
2021/12/10 03:07:46;;;;;;;35.20;24.58;;;;;;;3.93;100.00;99578.66;4795128;29;20052;-73
2021/12/10 03:10:17;;;;;;;39.67;24.13;;;;;;;3.96;100.00;99578.25;4779290;29;20439;-73
2021/12/10 03:12:43;;;;;;;45.28;24.25;;;;;;;3.89;100.00;99569.41;4800500;29;20054;-73
2021/12/10 03:15:11;;;;;;;43.30;22.70;;;;;;;3.94;100.00;99570.47;4785604;29;20102;-72
2021/12/10 03:17:37;;;;;;;43.92;23.88;;;;;;;3.94;100.00;99567.81;4817201;29;20059;-73
2021/12/10 03:20:07;;;;;;;44.40;22.83;;;;;;;3.94;100.00;99570.47;4796486;28;20126;-73
2021/12/10 03:22:33;;;;;;;37.58;21.10;;;;;;;3.96;100.00;99552.41;4808665;29;20056;-73
2021/12/10 03:24:58;;;;;;;38.03;20.35;;;;;;;3.94;100.00;99570.47;4816042;29;20091;-73
2021/12/10 03:27:24;;;;;;;32.00;19.25;;;;;;;3.85;100.00;99565.50;4785805;29;20059;-73
2021/12/10 03:29:51;;;;;;;38.28;19.23;;;;;;;3.86;100.00;99568.00;4800724;29;20052;-72
2021/12/10 03:32:22;;;;;;;33.33;19.02;;;;;;;3.90;100.00;99557.75;4801309;29;20055;-72
2021/12/10 03:34:48;;;;;;;34.55;18.48;;;;;;;3.87;100.00;99553.66;4786143;29;20074;-72
2021/12/10 03:37:17;;;;;;;34.72;18.85;;;;;;;3.94;100.00;99559.81;4814409;29;20046;-72
2021/12/10 03:39:43;;;;;;;39.20;19.23;;;;;;;3.89;100.00;99559.56;4811524;29;20178;-72
2021/12/10 03:42:09;;;;;;;31.45;18.63;;;;;;;3.93;100.00;99544.00;4806690;29;20043;-73
2021/12/10 03:44:35;;;;;;;42.53;18.42;;;;;;;3.91;100.00;99538.06;4816229;29;20028;-73
2021/12/10 03:47:02;;;;;;;38.55;18.15;;;;;;;3.93;100.00;99534.19;4785450;29;20051;-72
2021/12/10 03:49:28;;;;;;;36.78;17.92;;;;;;;3.87;100.00;99537.66;4813302;29;21005;-72
2021/12/10 03:51:54;;;;;;;34.80;18.23;;;;;;;3.91;100.00;99528.25;4817373;29;20122;-73
2021/12/10 03:54:19;;;;;;;35.88;18.15;;;;;;;3.91;100.00;99530.91;4806605;29;20670;-73
2021/12/10 03:56:47;;;;;;;37.80;19.48;;;;;;;3.93;100.00;99523.53;4800970;29;20126;-72
2021/12/10 03:59:16;;;;;;;32.92;18.02;;;;;;;3.87;100.00;99511.03;4808188;29;20080;-73
2021/12/10 04:01:46;;;;;;;38.42;20.27;;;;;;;3.96;100.00;99520.44;4805920;29;20137;-73
2021/12/10 04:04:17;;;;;;;39.72;19.13;;;;;;;3.92;100.00;99524.53;4811312;29;20182;-72
2021/12/10 04:06:43;;;;;;;34.10;18.65;;;;;;;3.97;100.00;99524.78;4803584;28;20181;-72
2021/12/10 04:09:09;;;;;;;42.45;21.15;;;;;;;3.95;100.00;99518.00;4798447;29;20508;-72
2021/12/10 04:11:35;;;;;;;34.33;20.83;;;;;;;3.94;100.00;99527.03;4810492;28;21131;-72
2021/12/10 04:14:01;;;;;;;31.45;19.05;;;;;;;3.92;100.00;99519.22;4774064;29;20055;-72
2021/12/10 04:16:28;;;;;;;30.67;20.20;;;;;;;3.96;100.00;99511.63;4813529;29;20514;-72
2021/12/10 04:18:56;;;;;;;35.58;21.25;;;;;;;3.95;100.00;99508.16;4784195;28;21148;-72
2021/12/10 04:21:22;;;;;;;35.65;21.52;;;;;;;3.96;100.00;99523.13;4816483;29;20054;-72
2021/12/10 04:23:48;;;;;;;35.15;22.30;;;;;;;3.97;100.00;99511.44;4818674;29;21108;-72
2021/12/10 04:26:16;;;;;;;35.17;22.25;;;;;;;3.97;100.00;99511.44;4787805;29;20525;-72
2021/12/10 04:28:42;;;;;;;42.00;22.40;;;;;;;3.90;100.00;99515.94;4802904;29;20080;-72
2021/12/10 04:31:08;;;;;;;46.00;22.42;;;;;;;3.99;100.00;99509.38;4815222;29;20086;-72
2021/12/10 04:33:33;;;;;;;39.08;24.45;;;;;;;3.91;100.00;99520.25;4808654;29;20924;-72
2021/12/10 04:36:00;;;;;;;40.50;27.17;;;;;;;3.88;100.00;99504.66;4802885;29;20059;-72
2021/12/10 04:38:28;;;;;;;42.28;26.92;;;;;;;3.85;100.00;99502.41;4792693;29;20066;-72
2021/12/10 04:40:57;;;;;;;50.05;28.20;;;;;;;3.87;100.00;99499.56;4815270;28;20035;-72
2021/12/10 04:43:23;;;;;;;45.40;29.13;;;;;;;3.85;100.00;99497.06;4818676;28;20051;-73
2021/12/10 04:45:55;;;;;;;51.85;28.35;;;;;;;3.85;100.00;99490.94;4788647;28;20170;-72
2021/12/10 04:48:20;;;;;;;41.05;28.17;;;;;;;3.83;100.00;99488.47;4818527;28;20518;-73
2021/12/10 04:50:46;;;;;;;44.90;28.05;;;;;;;3.89;100.00;99481.50;4830863;28;20047;-72
2021/12/10 04:53:12;;;;;;;45.47;28.33;;;;;;;3.75;100.00;99485.97;4825378;29;20063;-72
2021/12/10 04:55:38;;;;;;;46.40;26.95;;;;;;;3.61;100.00;99474.47;4834676;28;20047;-72
2021/12/10 04:58:04;;;;;;;41.40;26.73;;;;;;;3.50;100.00;99473.22;4806394;28;20169;-73
2021/12/10 05:00:35;;;;;;;43.50;28.00;;;;;;;3.44;100.00;99465.22;4835093;28;23989;-72
2021/12/10 05:03:00;;;;;;;45.17;28.70;;;;;;;3.34;100.00;99465.59;4831930;28;20027;-73
2021/12/10 05:05:27;;;;;;;47.65;28.77;;;;;;;3.13;100.00;99461.22;4821740;28;20066;-73
2021/12/10 05:07:53;;;;;;;46.15;29.55;;;;;;;3.00;100.00;99461.97;4802680;28;20681;-72
2021/12/10 05:10:20;;;;;;;44.92;28.38;;;;;;;2.84;100.00;99459.63;4811472;29;20098;-73
2021/12/10 05:12:46;;;;;;;51.35;29.40;;;;;;;2.69;100.00;99454.44;4805641;28;20697;-72
2021/12/10 05:15:18;;;;;;;45.60;30.38;;;;;;;2.59;100.00;99448.66;4813608;29;20149;-72
2021/12/10 05:17:43;;;;;;;55.05;32.80;;;;;;;2.49;100.00;99450.84;4815736;28;23977;-72
2021/12/10 05:20:16;;;;;;;51.53;30.75;;;;;;;2.32;100.00;99431.72;4835832;29;20158;-72
2021/12/10 05:22:44;;;;;;;55.13;33.85;;;;;;;2.37;100.00;99429.31;4830324;28;20058;-72
2021/12/10 05:25:10;;;;;;;54.90;34.10;;;;;;;2.38;100.00;99423.78;4822784;28;20055;-74
2021/12/10 05:27:36;;;;;;;49.50;33.70;;;;;;;2.30;100.00;99412.50;4833989;28;20041;-73
2021/12/10 05:30:03;;;;;;;56.20;33.28;;;;;;;2.24;100.00;99418.56;4819444;29;20043;-73
2021/12/10 05:32:29;;;;;;;52.15;34.10;;;;;;;2.22;100.00;99425.94;4833045;28;20059;-73
2021/12/10 05:34:54;;;;;;;52.50;32.55;;;;;;;2.12;100.00;99428.91;4835916;28;20044;-73
2021/12/10 05:37:20;;;;;;;50.78;33.55;;;;;;;2.09;100.00;99427.47;4802709;29;20052;-73
2021/12/10 05:39:46;;;;;;;58.42;35.78;;;;;;;2.01;100.00;99421.47;4815753;29;20477;-73
2021/12/10 05:42:12;;;;;;;59.35;36.47;;;;;;;2.03;100.00;99422.91;4793170;29;21098;-73
2021/12/10 05:44:38;;;;;;;58.58;36.15;;;;;;;2.06;100.00;99424.38;4806667;29;20075;-73
2021/12/10 05:47:05;;;;;;;65.82;37.50;;;;;;;2.01;100.00;99424.13;4814748;29;20039;-74
2021/12/10 05:49:30;;;;;;;63.55;39.67;;;;;;;2.09;100.00;99422.16;4805534;29;21055;-73
2021/12/10 05:51:56;;;;;;;69.78;38.45;;;;;;;2.09;100.00;99422.16;4815613;29;20036;-74
2021/12/10 05:54:22;;;;;;;63.50;38.00;;;;;;;2.08;100.00;99425.81;4818438;29;20047;-74
2021/12/10 05:56:47;;;;;;;64.55;39.17;;;;;;;2.22;100.00;99424.09;4804925;29;21194;-74
2021/12/10 05:59:13;;;;;;;62.00;39.05;;;;;;;2.34;100.00;99419.88;4818378;29;20110;-74
2021/12/10 06:01:38;;;;;;;66.63;39.53;;;;;;;2.50;100.00;99428.56;4815491;29;20047;-74
2021/12/10 06:04:04;;;;;;;62.45;38.67;;;;;;;2.54;100.00;99435.13;4809468;29;20203;-74
2021/12/10 06:06:31;;;;;;;59.97;37.22;;;;;;;2.66;100.00;99427.44;4820556;29;20074;-74
2021/12/10 06:08:58;;;;;;;56.90;36.55;;;;;;;2.72;100.00;99427.47;4818320;28;24523;-73
2021/12/10 06:11:25;;;;;;;52.90;35.10;;;;;;;2.77;100.00;99425.06;4831648;29;20043;-73
2021/12/10 06:13:51;;;;;;;52.53;33.72;;;;;;;2.84;100.00;99425.06;4812972;29;21034;-73
2021/12/10 06:16:17;;;;;;;51.08;33.47;;;;;;;2.81;100.00;99412.19;4802169;28;20115;-73
2021/12/10 06:18:42;;;;;;;51.08;31.27;;;;;;;2.85;100.00;99421.41;4814410;29;20090;-73
2021/12/10 06:21:08;;;;;;;50.50;31.50;;;;;;;2.78;100.00;99417.91;4808971;29;20050;-73
2021/12/10 06:23:34;;;;;;;46.47;32.35;;;;;;;2.77;100.00;99418.88;4802247;29;20048;-73
2021/12/10 06:25:59;;;;;;;50.15;33.08;;;;;;;2.74;100.00;99408.63;4828527;29;20502;-73
2021/12/10 06:28:25;;;;;;;47.03;32.38;;;;;;;2.68;100.00;99415.59;4815107;28;20099;-73
2021/12/10 06:30:52;;;;;;;51.38;33.35;;;;;;;2.54;100.00;99414.69;4813100;29;20036;-72
2021/12/10 06:33:20;;;;;;;51.33;31.73;;;;;;;2.43;100.00;99407.25;4828988;29;20040;-72
2021/12/10 06:35:49;;;;;;;51.63;31.83;;;;;;;2.32;100.00;99407.81;4804622;29;20105;-74
2021/12/10 06:38:15;;;;;;;45.17;29.75;;;;;;;2.31;100.00;99411.47;4832034;29;20107;-72
2021/12/10 06:40:43;;;;;;;47.92;30.33;;;;;;;2.20;100.00;99412.00;4808989;29;20052;-72
2021/12/10 06:43:09;;;;;;;42.58;30.10;;;;;;;2.10;100.00;99405.19;4807365;29;20054;-73
2021/12/10 06:45:37;;;;;;;45.60;31.00;;;;;;;2.01;100.00;99409.00;4800483;29;20036;-73
2021/12/10 06:48:05;;;;;;;44.72;30.17;;;;;;;1.95;100.00;99411.63;4801917;29;20066;-72
2021/12/10 06:50:34;;;;;;;53.97;31.95;;;;;;;1.84;100.00;99407.66;4830697;29;21131;-73
2021/12/10 06:53:00;;;;;;;49.08;30.35;;;;;;;1.72;100.00;99412.66;4826611;29;20050;-73
2021/12/10 06:55:27;;;;;;;47.00;30.70;;;;;;;1.67;100.00;99413.22;4822027;29;20048;-73
2021/12/10 06:57:52;;;;;;;51.58;31.70;;;;;;;1.55;100.00;99414.75;4816186;29;20078;-73
2021/12/10 07:00:23;;;;;;;48.30;31.63;;;;;;;1.49;100.00;99409.38;4811890;28;20245;-73
2021/12/10 07:02:49;;;;;;;46.67;29.40;;;;;;;1.50;100.00;99414.47;4813513;29;20063;-72
2021/12/10 07:05:15;;;;;;;45.08;29.30;;;;;;;1.46;100.00;99415.88;4809700;29;20050;-73
2021/12/10 07:07:41;;;;;;;43.85;29.17;;;;;;;1.34;100.00;99412.06;4794885;29;20158;-72
2021/12/10 07:10:08;;;;;;;43.22;26.88;;;;;;;1.24;100.00;99406.25;4809235;29;20047;-72
2021/12/10 07:12:35;;;;;;;45.33;28.25;;;;;;;1.25;100.00;99405.22;4801408;28;20609;-72
2021/12/10 07:15:02;;;;;;;42.97;26.58;;;;;;;1.22;100.00;99400.31;4802687;29;20055;-72
2021/12/10 07:17:28;;;;;;;45.17;28.23;;;;;;;1.22;100.00;99397.66;4824445;28;20052;-72
2021/12/10 07:19:53;;;;;;;43.78;26.17;;;;;;;1.27;100.00;99408.53;4795612;28;20062;-72
2021/12/10 07:22:19;;;;;;;42.38;26.25;;;;;;;1.25;100.00;99399.94;4810754;29;23911;-72
2021/12/10 07:24:44;;;;;;;40.67;24.00;;;;;;;1.24;100.00;99406.25;4800031;28;21554;-72
2021/12/10 07:27:11;;;;;;;41.13;25.77;;;;;;;1.13;100.00;99407.56;4777959;29;20171;-71
2021/12/10 07:29:39;;;;;;;39.88;23.65;;;;;;;1.09;100.00;99409.75;4795524;29;20413;-72
2021/12/10 07:32:05;;;;;;;40.20;25.10;;;;;;;1.12;100.00;99414.69;4771378;29;23955;-72
2021/12/10 07:34:30;;;;;;;39.20;24.02;;;;;;;1.15;100.00;99419.59;4783917;29;20068;-72
2021/12/10 07:36:56;;;;;;;42.92;24.17;;;;;;;1.16;100.00;99421.28;4794458;29;20044;-72
2021/12/10 07:39:21;;;;;;;39.65;24.60;;;;;;;1.09;100.00;99408.91;4777483;29;20130;-72
2021/12/10 07:41:47;;;;;;;38.47;23.95;;;;;;;1.10;100.00;99415.88;4812966;29;20444;-71
2021/12/10 07:44:13;;;;;;;41.83;24.67;;;;;;;1.06;100.00;99410.13;4796124;29;20040;-71
2021/12/10 07:46:40;;;;;;;42.97;23.52;;;;;;;1.02;100.00;99422.13;4797753;29;20051;-71
2021/12/10 07:49:13;;;;;;;37.13;24.42;;;;;;;1.03;100.00;99421.13;4829800;29;20158;-71
2021/12/10 07:51:39;;;;;;;40.45;22.48;;;;;;;1.11;100.00;99414.88;4810966;28;20742;-71
2021/12/10 07:54:05;;;;;;;35.03;22.67;;;;;;;1.18;100.00;99416.59;4800760;29;24474;-70
2021/12/10 07:56:31;;;;;;;33.78;21.40;;;;;;;1.25;100.00;99421.16;4792263;29;20082;-70
2021/12/10 07:58:59;;;;;;;35.65;21.83;;;;;;;1.19;100.00;99420.06;4797735;29;20094;-70
2021/12/10 08:01:28;;;;;;;35.05;20.77;;;;;;;1.18;100.00;99413.94;4808577;29;23987;-72
2021/12/10 08:03:55;;;;;;;32.83;21.30;;;;;;;1.15;100.00;99419.59;4810537;29;20032;-71
2021/12/10 08:06:21;;;;;;;33.30;20.85;;;;;;;1.18;100.00;99418.41;4798687;29;20057;-71
2021/12/10 08:08:47;;;;;;;32.95;20.15;;;;;;;1.16;100.00;99404.53;4826151;28;20938;-70
2021/12/10 08:11:13;;;;;;;31.67;19.77;;;;;;;1.18;100.00;99408.63;4809409;29;20141;-71
2021/12/10 08:13:39;;;;;;;35.85;19.98;;;;;;;1.34;100.00;99418.19;4818676;29;20417;-73
2021/12/10 08:16:04;;;;;;;30.92;18.83;;;;;;;1.39;100.00;99413.13;4814968;29;21106;-72
2021/12/10 08:18:30;;;;;;;36.08;20.45;;;;;;;1.47;100.00;99417.50;4815948;29;20066;-72
2021/12/10 08:20:57;;;;;;;34.47;19.15;;;;;;;1.57;100.00;99415.34;4828964;28;20114;-72
2021/12/10 08:23:23;;;;;;;28.92;18.23;;;;;;;1.78;100.00;99408.41;4814085;29;20028;-72
2021/12/10 08:25:49;;;;;;;29.08;17.65;;;;;;;1.83;100.00;99400.69;4803471;28;20051;-72
2021/12/10 08:28:15;;;;;;;31.70;17.73;;;;;;;1.70;100.00;99404.06;4832574;29;20771;-73
2021/12/10 08:30:41;;;;;;;30.00;17.30;;;;;;;1.76;100.00;99405.94;4809470;29;20063;-71
2021/12/10 08:33:13;;;;;;;22.60;15.80;;;;;;;1.77;100.00;99404.13;4812211;29;20055;-71
2021/12/10 08:35:43;;;;;;;32.55;16.88;;;;;;;1.83;100.00;99413.97;4813619;29;20048;-72
2021/12/10 08:38:10;;;;;;;25.10;17.10;;;;;;;1.92;100.00;99413.63;4811307;29;20606;-71
2021/12/10 08:40:40;;;;;;;25.25;16.92;;;;;;;2.07;100.00;99415.38;4824841;28;20043;-71
2021/12/10 08:43:06;;;;;;;28.38;15.63;;;;;;;2.39;100.00;99419.31;4812025;29;20043;-71
2021/12/10 08:45:33;;;;;;;24.25;15.30;;;;;;;2.58;100.00;99415.13;4799066;29;20599;-72
2021/12/10 08:47:59;;;;;;;29.42;14.60;;;;;;;2.71;100.00;99417.03;4791003;29;20403;-73
2021/12/10 08:50:27;;;;;;;27.58;13.93;;;;;;;3.00;100.00;99419.41;4804069;29;20055;-73
2021/12/10 08:52:57;;;;;;;22.93;13.97;;;;;;;3.25;100.00;99421.56;4797910;29;20142;-73
2021/12/10 08:55:23;;;;;;;25.20;14.70;;;;;;;3.41;100.00;99412.41;4810943;29;20528;-73
2021/12/10 08:57:49;;;;;;;20.30;13.02;;;;;;;3.50;100.00;99424.47;4807760;28;20048;-73
2021/12/10 09:00:16;;;;;;;22.00;14.00;;;;;;;3.54;100.00;99426.53;4812063;29;20177;-72
2021/12/10 09:02:41;;;;;;;15.63;12.13;;;;;;;3.66;100.00;99425.97;4802063;28;20023;-72
2021/12/10 09:05:09;;;;;;;22.02;12.30;;;;;;;3.75;100.00;99432.72;4803076;29;20135;-72
2021/12/10 09:07:35;;;;;;;20.63;12.85;;;;;;;3.86;100.00;99437.47;4814901;29;20543;-72
2021/12/10 09:10:01;;;;;;;19.00;12.35;;;;;;;3.89;100.00;99431.69;4811601;29;20055;-73
2021/12/10 09:12:27;;;;;;;23.67;13.20;;;;;;;3.85;100.00;99433.13;4804868;29;20323;-72
2021/12/10 09:14:56;;;;;;;19.85;11.98;;;;;;;3.97;100.00;99431.53;4813558;29;20141;-73
2021/12/10 09:17:25;;;;;;;19.45;13.18;;;;;;;3.93;100.00;99438.28;4803101;29;20048;-73
2021/12/10 09:19:52;;;;;;;18.50;11.80;;;;;;;4.09;100.00;99433.56;4828269;29;20162;-72
2021/12/10 09:22:19;;;;;;;18.30;11.82;;;;;;;4.25;100.00;99430.50;4812605;29;20539;-73
2021/12/10 09:24:45;;;;;;;21.95;12.18;;;;;;;4.46;100.00;99432.13;4811238;29;20051;-71
2021/12/10 09:27:12;;;;;;;18.80;12.52;;;;;;;4.60;100.00;99430.22;4819502;29;20043;-73
2021/12/10 09:29:40;;;;;;;21.70;11.85;;;;;;;4.54;100.00;99431.88;4806986;29;20048;-73
2021/12/10 09:32:08;;;;;;;15.98;11.32;;;;;;;4.84;100.00;99434.88;4815261;29;20594;-73
2021/12/10 09:34:34;;;;;;;19.02;11.07;;;;;;;4.91;100.00;99433.00;4819884;29;20036;-72
2021/12/10 09:36:59;;;;;;;18.88;10.68;;;;;;;5.02;100.00;99424.38;4818958;28;20166;-72
2021/12/10 09:39:26;;;;;;;18.55;10.40;;;;;;;5.07;100.00;99425.59;4833753;29;20118;-72
2021/12/10 09:41:52;;;;;;;16.90;10.98;;;;;;;5.10;100.00;99431.31;4829713;29;20903;-72
2021/12/10 09:44:18;;;;;;;13.88;9.70;;;;;;;4.95;100.00;99428.91;4826298;29;20052;-72
2021/12/10 09:46:45;;;;;;;18.83;10.70;;;;;;;4.69;100.00;99428.97;4829619;29;20036;-72
2021/12/10 09:49:11;;;;;;;20.17;11.88;;;;;;;4.94;100.00;99426.44;4806263;29;20082;-72
2021/12/10 09:51:44;;;;;;;18.15;10.93;;;;;;;4.95;100.00;99434.25;4802745;29;20229;-72
2021/12/10 09:54:13;;;;;;;15.93;10.45;;;;;;;5.08;100.00;99438.69;4815103;29;20048;-73
2021/12/10 09:56:46;;;;;;;15.73;10.23;;;;;;;5.30;100.00;99431.25;4805320;29;20081;-72
2021/12/10 09:59:12;;;;;;;14.48;9.55;;;;;;;5.33;100.00;99437.97;4819363;29;20051;-73
2021/12/10 10:01:44;;;;;;;12.55;9.43;;;;;;;5.30;100.00;99431.25;4812622;29;20059;-73
2021/12/10 10:04:10;;;;;;;15.53;8.90;;;;;;;5.32;100.00;99423.81;4808810;29;20102;-74
2021/12/10 10:06:41;;;;;;;12.32;8.63;;;;;;;5.44;100.00;99427.47;4818056;29;20375;-72
2021/12/10 10:09:10;;;;;;;14.73;8.68;;;;;;;5.45;100.00;99423.75;4804475;29;20052;-72
2021/12/10 10:11:36;;;;;;;14.38;8.63;;;;;;;5.38;100.00;99420.28;4817409;29;20050;-73
2021/12/10 10:14:02;;;;;;;16.25;8.50;;;;;;;5.48;100.00;99409.16;4780167;29;20040;-73
2021/12/10 10:16:31;;;;;;;12.82;8.32;;;;;;;5.56;100.00;99402.72;4808559;29;20056;-72
2021/12/10 10:18:56;;;;;;;16.67;9.38;;;;;;;5.55;100.00;99406.44;4812325;29;20076;-73
2021/12/10 10:21:34;;;;;;;13.43;7.63;;;;;;;5.47;100.00;99410.97;4803223;29;23988;-73
2021/12/10 10:24:00;;;;;;;13.20;8.50;;;;;;;5.60;100.00;99406.59;4819598;29;20035;-74
2021/12/10 10:26:32;;;;;;;15.10;8.52;;;;;;;5.90;100.00;99420.19;4819666;29;20162;-72
2021/12/10 10:29:07;;;;;;;18.02;8.40;;;;;;;5.95;100.00;99399.81;4822995;29;20051;-72
2021/12/10 10:31:33;;;;;;;13.00;7.60;;;;;;;6.08;100.00;99406.09;4833884;29;20043;-72
2021/12/10 10:34:00;;;;;;;9.82;7.38;;;;;;;6.22;100.00;99404.94;4816060;28;21120;-72
2021/12/10 10:36:34;;;;;;;13.20;7.57;;;;;;;6.33;100.00;99396.19;4811597;29;20194;-71
2021/12/10 10:39:18;;;;;;;9.90;6.68;;;;;;;6.39;100.00;99400.66;4817218;29;20166;-71
2021/12/10 10:41:48;;;;;;;10.85;7.13;;;;;;;6.57;100.00;99389.16;4787068;29;22649;-73
2021/12/10 10:44:15;;;;;;;10.07;6.45;;;;;;;6.78;100.00;99398.59;4796692;29;20060;-74
2021/12/10 10:46:41;;;;;;;11.25;6.70;;;;;;;6.94;100.00;99395.31;4797693;29;20078;-71
2021/12/10 10:49:06;;;;;;;8.85;6.13;;;;;;;7.43;100.00;99391.81;4794097;29;20052;-71
2021/12/10 10:51:40;;;;;;;10.13;6.53;;;;;;;7.28;100.00;99398.41;4804758;29;20043;-71
2021/12/10 10:54:08;;;;;;;11.55;6.47;;;;;;;7.20;100.00;99390.69;4799953;29;20662;-73
2021/12/10 10:56:38;;;;;;;13.30;6.57;;;;;;;7.46;100.00;99399.41;4798102;29;20063;-73
2021/12/10 10:59:13;;;;;;;12.13;6.80;;;;;;;7.58;100.00;99400.22;4795093;29;20032;-72
2021/12/10 11:01:48;;;;;;;9.52;5.57;;;;;;;7.93;100.00;99394.94;4790241;29;20063;-70
2021/12/10 11:04:26;;;;;;;9.50;5.60;;;;;;;7.67;100.00;99401.56;4810955;29;20174;-72
2021/12/10 11:06:56;;;;;;;9.68;5.63;;;;;;;7.79;100.00;99401.56;4790930;29;20043;-72
2021/12/10 11:09:28;;;;;;;7.82;5.50;;;;;;;8.04;100.00;99409.47;4813222;29;20036;-70
2021/12/10 11:11:58;;;;;;;9.10;5.47;;;;;;;8.00;100.00;99403.75;4814420;29;20194;-72
2021/12/10 11:14:32;;;;;;;11.27;5.20;;;;;;;8.16;100.00;99409.47;4790175;29;20183;-72
2021/12/10 11:17:15;;;;;;;10.07;5.40;;;;;;;8.31;100.00;99399.88;4784506;29;20036;-72
2021/12/10 11:19:48;;;;;;;7.50;5.03;;;;;;;8.54;100.00;99415.22;4785117;29;20048;-72
2021/12/10 11:22:15;;;;;;;11.43;6.13;;;;;;;8.26;100.00;99410.50;4806582;29;20296;-72
2021/12/10 11:24:47;;;;;;;17.00;5.05;;;;;;;7.99;100.00;99402.09;4798758;29;20040;-70
2021/12/10 11:27:20;;;;;;;12.77;4.97;;;;;;;8.22;100.00;99403.19;4786572;29;20060;-70
2021/12/10 11:29:47;;;;;;;6.93;4.43;;;;;;;7.99;100.00;99409.31;4798481;29;20039;-70
2021/12/10 11:32:15;;;;;;;7.68;5.38;;;;;;;7.88;100.00;99416.28;4808185;29;21137;-70
2021/12/10 11:34:54;;;;;;;7.88;4.72;;;;;;;7.85;100.00;99417.56;4788549;29;20056;-69